Time;durP1;ratioP1;P1;durP2;ratioP2;P2;SDS_P1;SDS_P2;PMS_P1;PMS_P2;Temp;Humidity;BMP_temperature;BMP_pressure;BME280_temperature;BME280_humidity;BME280_pressure;Samples;Min_cycle;Max_cycle;Signal;HPM_P1;HPM_P2
2021/04/15 00:04:07;;;;;;;3.15;2.05;;;5.70;49.50;;;;;;10033982;28;20651;-64
2021/04/15 00:09:00;;;;;;;3.88;1.73;;;5.50;50.60;;;;;;10033576;28;20143;-64
2021/04/15 00:13:53;;;;;;;3.83;1.58;;;5.50;50.80;;;;;;10034290;28;20049;-67
2021/04/15 00:18:45;;;;;;;2.92;1.30;;;5.50;50.20;;;;;;10031331;28;20044;-64
2021/04/15 00:23:36;;;;;;;2.58;1.30;;;5.40;50.70;;;;;;10032646;28;20029;-63
2021/04/15 00:28:27;;;;;;;2.60;1.23;;;5.40;52.30;;;;;;10032185;28;20047;-64
2021/04/15 00:33:18;;;;;;;2.25;1.40;;;5.40;52.70;;;;;;10024678;28;20407;-64
2021/04/15 00:38:11;;;;;;;2.38;1.67;;;5.50;52.20;;;;;;10044432;28;20033;-63
2021/04/15 00:43:03;;;;;;;4.03;1.77;;;5.60;51.60;;;;;;10045732;28;20090;-63
2021/04/15 00:48:15;;;;;;;2.05;1.42;;;5.50;52.90;;;;;;10044278;28;20560;-65
2021/04/15 00:53:11;;;;;;;4.28;2.05;;;5.50;53.50;;;;;;10044932;28;20082;-65
2021/04/15 00:58:02;;;;;;;;;;;5.50;52.50;;;;;;10045168;28;20043;-63
2021/04/15 01:02:55;;;;;;;2.10;1.13;;;5.50;54.50;;;;;;10041404;28;19948;-67
2021/04/15 01:07:45;;;;;;;3.83;1.88;;;5.40;52.80;;;;;;10042407;28;20467;-66
2021/04/15 01:12:52;;;;;;;1.30;1.20;;;5.40;53.80;;;;;;10038771;28;20526;-65
2021/04/15 01:18:02;;;;;;;4.47;1.45;;;5.30;53.50;;;;;;10043541;28;20041;-65
2021/04/15 01:23:13;;;;;;;2.15;1.33;;;5.30;54.30;;;;;;10042931;28;20035;-64
2021/04/15 01:28:16;;;;;;;2.85;1.77;;;5.30;54.20;;;;;;10042587;28;20029;-64
2021/04/15 01:33:16;;;;;;;1.98;1.55;;;5.30;53.40;;;;;;10042872;28;20060;-63
2021/04/15 01:38:42;;;;;;;4.13;1.80;;;5.30;55.80;;;;;;10041429;28;20036;-63
2021/04/15 01:43:42;;;;;;;;;;;5.30;56.30;;;;;;10035840;28;20250;-63
2021/04/15 01:48:39;;;;;;;3.55;1.92;;;5.30;57.20;;;;;;10041639;28;19987;-63
2021/04/15 01:53:40;;;;;;;3.08;1.70;;;5.20;55.90;;;;;;10042546;28;20155;-64
2021/04/15 01:58:40;;;;;;;3.45;2.17;;;5.10;57.30;;;;;;10041897;28;20032;-64
2021/04/15 02:03:35;;;;;;;4.35;2.50;;;5.20;57.40;;;;;;10041863;28;20033;-63
2021/04/15 02:08:29;;;;;;;5.88;2.00;;;5.20;58.20;;;;;;10041625;28;21234;-63
2021/04/15 02:13:22;;;;;;;4.78;2.33;;;5.30;56.90;;;;;;10039964;28;20160;-63
2021/04/15 02:18:25;;;;;;;4.63;3.08;;;5.20;57.70;;;;;;10041026;28;20420;-66
2021/04/15 02:23:27;;;;;;;3.13;2.28;;;5.30;57.50;;;;;;10040839;28;20036;-64
2021/04/15 02:28:37;;;;;;;4.00;2.70;;;5.30;57.60;;;;;;10040762;28;20035;-63
2021/04/15 02:33:35;;;;;;;5.00;2.22;;;5.30;57.70;;;;;;10040770;28;20773;-65
2021/04/15 02:38:31;;;;;;;3.83;2.42;;;5.30;57.80;;;;;;10040455;28;20535;-63
2021/04/15 02:43:37;;;;;;;2.83;1.83;;;5.30;57.90;;;;;;10040220;28;20078;-66
2021/04/15 02:48:33;;;;;;;4.83;3.07;;;5.20;60.00;;;;;;10041936;28;20091;-63
2021/04/15 02:53:32;;;;;;;2.60;2.20;;;5.10;59.20;;;;;;10048490;28;20032;-62
2021/04/15 02:58:42;;;;;;;4.45;2.25;;;5.10;59.00;;;;;;10048842;28;20141;-63
2021/04/15 03:03:36;;;;;;;3.90;2.58;;;4.90;60.40;;;;;;10045771;28;20145;-64
2021/04/15 03:08:28;;;;;;;8.27;4.35;;;4.70;60.80;;;;;;10048079;28;20754;-64
2021/04/15 03:13:25;;;;;;;3.80;2.45;;;4.60;60.80;;;;;;10048303;28;20037;-63
2021/04/15 03:18:30;;;;;;;6.38;2.83;;;4.50;62.30;;;;;;10048833;28;20037;-64
2021/04/15 03:23:42;;;;;;;3.67;2.33;;;4.50;60.40;;;;;;10047386;28;20064;-64
2021/04/15 03:28:44;;;;;;;4.93;2.28;;;4.40;62.10;;;;;;10048464;28;20033;-67
2021/04/15 03:34:06;;;;;;;2.28;2.08;;;4.40;62.30;;;;;;10047088;28;20053;-66
2021/04/15 03:39:03;;;;;;;4.40;2.60;;;4.30;64.40;;;;;;10047567;28;20683;-65
2021/04/15 03:44:06;;;;;;;3.38;2.17;;;4.30;62.60;;;;;;10047060;28;20522;-64
2021/04/15 03:49:18;;;;;;;5.88;2.75;;;4.30;63.00;;;;;;10047011;28;20570;-64
2021/04/15 03:54:14;;;;;;;4.97;2.22;;;4.30;62.80;;;;;;10046135;28;20052;-63
2021/04/15 03:59:20;;;;;;;6.30;3.10;;;4.30;63.30;;;;;;10046772;28;20061;-67
2021/04/15 04:04:27;;;;;;;4.65;2.55;;;4.20;63.50;;;;;;10044570;28;20036;-63
2021/04/15 04:09:27;;;;;;;3.03;2.20;;;4.20;63.50;;;;;;10046534;28;20059;-67
2021/04/15 04:14:31;;;;;;;3.78;2.15;;;4.20;64.30;;;;;;10043748;28;20045;-68
2021/04/15 04:19:58;;;;;;;2.70;2.00;;;4.10;65.00;;;;;;10045650;28;21249;-66
2021/04/15 04:24:53;;;;;;;3.95;2.60;;;4.10;65.80;;;;;;10017029;28;20083;-66
2021/04/15 04:29:53;;;;;;;4.73;2.47;;;4.10;65.60;;;;;;10043822;28;20590;-66
2021/04/15 04:34:49;;;;;;;4.88;3.28;;;4.00;64.20;;;;;;10044991;28;20310;-64
2021/04/15 04:39:40;;;;;;;5.25;2.55;;;3.90;65.20;;;;;;10045548;28;20372;-64
2021/04/15 04:44:39;;;;;;;5.72;2.85;;;3.80;66.40;;;;;;10044236;28;20117;-63
2021/04/15 04:49:33;;;;;;;5.90;2.63;;;3.70;67.10;;;;;;10043208;28;20246;-63
2021/04/15 04:54:25;;;;;;;5.15;2.90;;;3.70;67.30;;;;;;10043532;28;20044;-65
2021/04/15 04:59:22;;;;;;;2.80;2.55;;;3.60;66.30;;;;;;10045022;28;20095;-64
2021/04/15 05:04:13;;;;;;;6.30;2.72;;;3.60;66.80;;;;;;10043773;28;20440;-64
2021/04/15 05:09:12;;;;;;;6.05;2.90;;;3.70;67.10;;;;;;10043466;28;20040;-63
2021/04/15 05:14:05;;;;;;;6.75;3.08;;;3.60;67.60;;;;;;10041593;28;20130;-64
2021/04/15 05:18:56;;;;;;;6.55;3.28;;;3.50;68.60;;;;;;10043226;28;20033;-63
2021/04/15 05:24:16;;;;;;;7.10;3.38;;;3.50;68.50;;;;;;10042885;28;20108;-65
2021/04/15 05:29:10;;;;;;;7.88;3.35;;;3.40;69.10;;;;;;10041283;28;21071;-63
2021/04/15 05:34:04;;;;;;;4.10;3.15;;;3.40;69.10;;;;;;10042113;28;20102;-65
2021/04/15 05:38:58;;;;;;;8.15;2.90;;;3.30;68.60;;;;;;10042483;28;20029;-63
2021/04/15 05:43:52;;;;;;;4.70;2.58;;;3.40;68.00;;;;;;10042790;28;20446;-63
2021/04/15 05:48:45;;;;;;;4.60;2.92;;;3.40;68.40;;;;;;10040881;28;20044;-65
2021/04/15 05:53:40;;;;;;;5.68;3.25;;;3.40;68.90;;;;;;10041690;28;20050;-65
2021/04/15 05:58:43;;;;;;;8.32;3.45;;;3.40;68.70;;;;;;10041377;28;20028;-65
2021/04/15 06:03:48;;;;;;;5.70;2.67;;;3.40;69.80;;;;;;10040972;28;20041;-64
2021/04/15 06:08:42;;;;;;;9.95;3.45;;;3.40;70.20;;;;;;10041524;28;20451;-64
2021/04/15 06:13:48;;;;;;;6.72;3.22;;;3.60;69.40;;;;;;10040682;28;20431;-64
2021/04/15 06:18:46;;;;;;;4.85;2.40;;;3.60;69.60;;;;;;10040620;28;20036;-65
2021/04/15 06:24:03;;;;;;;5.38;3.25;;;3.60;69.80;;;;;;10041358;28;20706;-64
2021/04/15 06:28:58;;;;;;;5.07;2.97;;;3.70;69.50;;;;;;10040237;28;20059;-63
2021/04/15 06:33:51;;;;;;;4.90;3.28;;;3.90;67.70;;;;;;10044395;28;20084;-66
2021/04/15 06:38:49;;;;;;;7.40;3.28;;;4.10;67.60;;;;;;10040970;28;20553;-65
2021/04/15 06:44:01;;;;;;;4.22;2.53;;;4.30;66.10;;;;;;10048189;28;20044;-60
2021/04/15 06:49:16;;;;;;;5.88;3.10;;;4.30;67.10;;;;;;10045391;28;20060;-60
2021/04/15 06:54:45;;;;;;;9.37;3.33;;;4.40;67.10;;;;;;10047245;28;20049;-61
2021/04/15 07:00:10;;;;;;;6.38;2.63;;;4.40;68.00;;;;;;10041824;28;20037;-60
2021/04/15 07:05:09;;;;;;;4.50;2.55;;;4.50;67.60;;;;;;10042654;28;21202;-60
2021/04/15 07:10:36;;;;;;;4.57;3.20;;;4.70;66.30;;;;;;9999551;28;20037;-61
2021/04/15 07:15:58;;;;;;;5.72;3.00;;;4.80;66.50;;;;;;10027836;28;20043;-59
2021/04/15 07:21:21;;;;;;;5.25;2.92;;;5.00;65.90;;;;;;10031818;28;20400;-62
2021/04/15 07:26:44;;;;;;;3.83;2.72;;;5.00;65.90;;;;;;10031689;28;20448;-59
2021/04/15 07:32:12;;;;;;;9.65;3.15;;;5.00;66.00;;;;;;10033456;28;20060;-60
2021/04/15 07:37:26;;;;;;;5.45;3.22;;;5.10;65.50;;;;;;10039944;28;20040;-65
2021/04/15 07:42:43;;;;;;;4.18;2.50;;;5.30;65.00;;;;;;10049897;28;21200;-61
2021/04/15 07:48:02;;;;;;;6.25;2.80;;;5.40;64.50;;;;;;10044238;28;20408;-68
2021/04/15 07:53:30;;;;;;;4.57;2.65;;;5.40;64.10;;;;;;10039363;28;20037;-61
2021/04/15 07:58:38;;;;;;;2.90;1.83;;;5.60;63.80;;;;;;10038779;28;20071;-66
2021/04/15 08:03:48;;;;;;;4.00;2.45;;;5.60;63.50;;;;;;10038443;28;20844;-64
2021/04/15 08:09:11;;;;;;;3.83;2.47;;;5.80;63.10;;;;;;10035505;28;20503;-65
2021/04/15 08:14:27;;;;;;;4.18;2.40;;;6.00;62.20;;;;;;10036775;28;20313;-67
2021/04/15 08:19:28;;;;;;;5.03;2.13;;;6.10;62.00;;;;;;10034049;28;20033;-64
2021/04/15 08:24:30;;;;;;;3.78;2.40;;;6.20;61.20;;;;;;10033704;28;20463;-65
2021/04/15 08:30:06;;;;;;;5.15;1.85;;;6.10;61.50;;;;;;10033468;28;20081;-67
2021/04/15 08:35:28;;;;;;;4.80;2.38;;;6.40;60.80;;;;;;10034120;28;20049;-64
2021/04/15 08:40:32;;;;;;;4.43;2.60;;;6.50;60.30;;;;;;10037841;28;20032;-65
2021/04/15 08:45:33;;;;;;;8.68;3.88;;;6.60;59.90;;;;;;10037693;28;20253;-61
2021/04/15 08:50:44;;;;;;;5.93;2.53;;;6.80;59.10;;;;;;10035414;28;20033;-64
2021/04/15 08:55:42;;;;;;;5.20;2.25;;;6.90;58.80;;;;;;10034448;28;20067;-59
2021/04/15 09:01:13;;;;;;;4.55;2.70;;;7.00;58.80;;;;;;10036630;28;20345;-60
2021/04/15 09:06:25;;;;;;;3.60;1.98;;;7.10;57.70;;;;;;10036863;28;20558;-62
2021/04/15 09:11:32;;;;;;;3.53;3.10;;;7.30;57.70;;;;;;10035259;28;20033;-68
2021/04/15 09:16:40;;;;;;;4.13;2.67;;;7.40;56.70;;;;;;10035922;28;20480;-65
2021/04/15 09:21:46;;;;;;;3.13;2.03;;;7.50;56.10;;;;;;10036019;28;20572;-59
2021/04/15 09:26:55;;;;;;;4.13;1.93;;;7.70;55.90;;;;;;10036321;28;20161;-63
2021/04/15 09:31:54;;;;;;;5.55;2.65;;;7.70;55.50;;;;;;10035297;28;20431;-66
2021/04/15 09:37:06;;;;;;;4.03;2.47;;;7.70;55.40;;;;;;10032946;28;20124;-63
2021/04/15 09:42:15;;;;;;;5.22;1.88;;;8.00;54.60;;;;;;10032321;28;20535;-68
2021/04/15 09:47:48;;;;;;;2.33;1.92;;;8.20;53.40;;;;;;10028263;28;20061;-69
2021/04/15 09:52:42;;;;;;;4.97;2.30;;;8.20;52.80;;;;;;10032216;28;20033;-63
2021/04/15 09:57:32;;;;;;;5.57;1.92;;;8.30;51.80;;;;;;10033581;28;20256;-62
2021/04/15 10:02:35;;;;;;;3.20;2.10;;;8.40;51.30;;;;;;10033030;28;20502;-64
2021/04/15 10:07:45;;;;;;;2.85;1.58;;;8.40;49.90;;;;;;10033527;28;20657;-66
2021/04/15 10:12:52;;;;;;;3.65;2.15;;;8.50;49.30;;;;;;10033549;28;20083;-65
2021/04/15 10:18:08;;;;;;;4.00;1.88;;;8.50;48.50;;;;;;10029272;28;20041;-64
2021/04/15 10:23:29;;;;;;;4.97;1.70;;;8.80;48.10;;;;;;10031016;28;20261;-64
2021/04/15 10:28:35;;;;;;;2.80;1.45;;;8.90;47.30;;;;;;10029528;28;20094;-63
2021/04/15 10:33:30;;;;;;;;;;;9.20;46.20;;;;;;10034164;28;20076;-69
2021/04/15 10:38:24;;;;;;;3.22;1.20;;;9.20;46.10;;;;;;10030249;28;20395;-64
2021/04/15 10:43:34;;;;;;;2.80;1.38;;;9.30;46.30;;;;;;10030752;28;20048;-62
2021/04/15 10:48:33;;;;;;;1.55;1.08;;;9.20;44.20;;;;;;10036034;28;20037;-70
2021/04/15 10:53:43;;;;;;;2.70;1.30;;;9.30;45.20;;;;;;10029788;28;20072;-62
2021/04/15 10:58:39;;;;;;;1.92;1.13;;;9.60;43.70;;;;;;10029964;28;20090;-64
2021/04/15 11:03:34;;;;;;;;;;;10.10;44.20;;;;;;10031286;28;20507;-68
2021/04/15 11:08:26;;;;;;;3.38;1.45;;;10.40;43.60;;;;;;10034835;28;19962;-63
2021/04/15 11:13:24;;;;;;;2.97;1.52;;;10.50;44.00;;;;;;10042280;28;20183;-64
2021/04/15 11:18:36;;;;;;;3.83;1.40;;;10.50;43.90;;;;;;10073195;28;20130;-61
2021/04/15 11:23:32;;;;;;;5.93;1.40;;;10.90;43.30;;;;;;10075132;28;20029;-64
2021/04/15 11:28:22;;;;;;;1.93;1.13;;;10.60;42.60;;;;;;10043487;28;20611;-64
2021/04/15 11:33:42;;;;;;;2.05;1.35;;;10.50;42.30;;;;;;10047872;28;20045;-62
2021/04/15 11:38:33;;;;;;;1.73;1.08;;;10.60;41.30;;;;;;10051729;28;20036;-64
2021/04/15 11:43:23;;;;;;;4.05;1.80;;;11.00;42.50;;;;;;10050406;28;20044;-63
2021/04/15 11:48:32;;;;;;;3.60;1.73;;;10.90;41.50;;;;;;10039880;28;20021;-64
2021/04/15 11:53:43;;;;;;;2.28;1.50;;;10.70;41.40;;;;;;10035424;28;20659;-64
2021/04/15 11:58:34;;;;;;;3.00;1.70;;;10.90;41.20;;;;;;10045749;28;20534;-63
2021/04/15 12:03:26;;;;;;;2.05;1.50;;;10.80;42.30;;;;;;10047283;28;20060;-60
2021/04/15 12:08:31;;;;;;;3.72;1.40;;;10.60;41.30;;;;;;10045865;28;20029;-60
2021/04/15 12:13:29;;;;;;;3.55;1.50;;;10.90;41.20;;;;;;10046146;28;20064;-60
2021/04/15 12:18:43;;;;;;;1.70;1.35;;;11.30;40.90;;;;;;10035825;28;20448;-64
2021/04/15 12:23:54;;;;;;;2.25;1.20;;;11.50;40.30;;;;;;10034996;28;21339;-66
2021/04/15 12:28:54;;;;;;;1.48;1.25;;;11.60;40.30;;;;;;10022862;28;20132;-64
2021/04/15 12:34:26;;;;;;;5.68;2.05;;;12.00;39.90;;;;;;10039020;28;21374;-61
2021/04/15 12:39:28;;;;;;;3.20;1.30;;;12.10;38.90;;;;;;10024078;28;20128;-66
2021/04/15 12:44:24;;;;;;;1.77;1.42;;;12.10;38.70;;;;;;10046209;28;20032;-60
2021/04/15 12:49:22;;;;;;;1.52;1.27;;;13.00;41.00;;;;;;10050239;28;20037;-69
2021/04/15 12:54:27;;;;;;;1.77;1.30;;;13.00;38.20;;;;;;10047524;28;20037;-60
2021/04/15 12:59:25;;;;;;;1.85;1.05;;;13.20;38.60;;;;;;10030621;28;20039;-62
2021/04/15 13:04:23;;;;;;;4.93;1.77;;;13.70;38.70;;;;;;10044534;28;20036;-60
2021/04/15 13:09:25;;;;;;;3.72;2.05;;;13.50;39.00;;;;;;10044816;28;20144;-63
2021/04/15 13:14:39;;;;;;;3.17;2.22;;;14.00;37.40;;;;;;10042671;28;20047;-60
2021/04/15 13:19:33;;;;;;;2.35;1.30;;;14.20;36.40;;;;;;10042666;28;20069;-64
2021/04/15 13:24:45;;;;;;;3.90;2.05;;;16.50;36.30;;;;;;10041429;28;20070;-59
2021/04/15 13:30:13;;;;;;;2.28;1.58;;;13.90;34.50;;;;;;10044893;28;20033;-62
2021/04/15 13:35:20;;;;;;;1.65;1.08;;;12.90;35.00;;;;;;10041218;28;20072;-62
2021/04/15 13:40:19;;;;;;;1.98;1.65;;;14.90;32.70;;;;;;10042661;28;20491;-62
2021/04/15 13:45:38;;;;;;;2.45;1.38;;;16.80;31.30;;;;;;10043048;28;20048;-65
2021/04/15 13:51:11;;;;;;;2.38;1.77;;;17.40;28.40;;;;;;10042967;28;20048;-65
2021/04/15 13:56:02;;;;;;;2.17;1.40;;;17.10;30.30;;;;;;10042454;28;20048;-65
2021/04/15 14:00:53;;;;;;;1.75;1.23;;;18.80;30.00;;;;;;10041735;28;20543;-63
2021/04/15 14:05:45;;;;;;;1.63;1.23;;;19.80;29.80;;;;;;10039769;28;20308;-61
2021/04/15 14:10:39;;;;;;;2.47;1.38;;;20.10;28.40;;;;;;10041987;28;20037;-61
2021/04/15 14:15:33;;;;;;;2.10;1.38;;;19.80;28.70;;;;;;10039769;28;20118;-61
2021/04/15 14:20:33;;;;;;;2.13;1.63;;;20.50;28.10;;;;;;10038942;28;20087;-60
2021/04/15 14:25:35;;;;;;;2.45;1.70;;;18.80;28.80;;;;;;10041579;28;20032;-66
2021/04/15 14:30:29;;;;;;;3.42;1.45;;;19.90;26.90;;;;;;10047321;28;20028;-63
2021/04/15 14:35:29;;;;;;;2.50;1.73;;;19.50;28.10;;;;;;10040215;28;20060;-63
2021/04/15 14:40:20;;;;;;;1.63;1.52;;;19.70;27.50;;;;;;10040344;28;20025;-62
2021/04/15 14:45:35;;;;;;;5.72;2.17;;;19.10;27.50;;;;;;10038500;28;20013;-61
2021/04/15 14:50:34;;;;;;;;;;;15.70;27.90;;;;;;10040041;28;20048;-56
2021/04/15 14:55:29;;;;;;;5.10;1.67;;;14.30;29.10;;;;;;10037872;28;20438;-55
2021/04/15 15:00:21;;;;;;;1.45;1.25;;;13.40;30.10;;;;;;10039369;28;20053;-59
2021/04/15 15:05:31;;;;;;;2.67;1.38;;;12.90;30.00;;;;;;10040416;28;20041;-63
2021/04/15 15:10:25;;;;;;;3.00;1.90;;;13.20;30.60;;;;;;10040546;28;20032;-58
2021/04/15 15:15:19;;;;;;;4.38;2.00;;;14.90;30.00;;;;;;10038659;28;20606;-60
2021/04/15 15:20:18;;;;;;;2.07;1.63;;;17.00;29.10;;;;;;10039398;28;20028;-62
2021/04/15 15:25:28;;;;;;;2.17;1.58;;;18.40;28.40;;;;;;10039975;28;20279;-61
2021/04/15 15:30:36;;;;;;;3.50;1.77;;;19.20;27.30;;;;;;10038812;28;20163;-63
2021/04/15 15:35:33;;;;;;;1.83;1.30;;;20.10;27.60;;;;;;10037615;28;20092;-63
2021/04/15 15:40:42;;;;;;;2.58;1.73;;;21.10;27.00;;;;;;10039070;28;20033;-63
2021/04/15 15:45:47;;;;;;;1.83;1.00;;;21.20;25.10;;;;;;10037574;28;20041;-60
2021/04/15 15:50:41;;;;;;;2.00;1.27;;;19.70;26.60;;;;;;10038698;28;20047;-60
2021/04/15 15:55:37;;;;;;;3.08;1.27;;;19.10;27.00;;;;;;10039426;28;20485;-59
2021/04/15 16:00:31;;;;;;;3.03;1.35;;;20.80;25.40;;;;;;10045843;28;20590;-67
2021/04/15 16:05:30;;;;;;;1.25;1.15;;;21.70;25.30;;;;;;10045929;28;20041;-62
2021/04/15 16:10:32;;;;;;;2.58;1.45;;;21.30;23.90;;;;;;10045910;28;20455;-61
2021/04/15 16:15:36;;;;;;;1.73;1.10;;;21.40;23.90;;;;;;10045790;28;20072;-69
2021/04/15 16:20:27;;;;;;;3.35;1.25;;;22.10;23.00;;;;;;10044310;28;20037;-64
2021/04/15 16:25:18;;;;;;;1.80;1.33;;;22.80;23.50;;;;;;10044938;28;20033;-61
2021/04/15 16:30:13;;;;;;;1.83;1.30;;;23.70;22.60;;;;;;10044449;28;20569;-63
2021/04/15 16:35:05;;;;;;;1.67;1.50;;;23.40;22.10;;;;;;10045034;28;20107;-65
2021/04/15 16:39:57;;;;;;;1.38;1.27;;;23.40;22.50;;;;;;10044159;28;20124;-63
2021/04/15 16:44:47;;;;;;;2.25;1.30;;;22.60;22.40;;;;;;10044562;28;20388;-66
2021/04/15 16:49:39;;;;;;;2.22;1.50;;;22.50;22.30;;;;;;10043310;28;20033;-63
2021/04/15 16:54:30;;;;;;;3.42;1.60;;;22.40;22.60;;;;;;10042437;28;20041;-65
2021/04/15 16:59:23;;;;;;;1.40;1.30;;;21.20;23.00;;;;;;10040784;28;20597;-65
2021/04/15 17:04:15;;;;;;;2.30;1.60;;;20.80;23.20;;;;;;10043659;28;20063;-61
2021/04/15 17:09:10;;;;;;;3.17;2.15;;;21.30;23.10;;;;;;10042873;28;20163;-64
2021/04/15 17:14:01;;;;;;;4.65;3.58;;;20.90;23.50;;;;;;10043329;28;20037;-70
2021/04/15 17:18:52;;;;;;;2.75;1.95;;;20.80;23.80;;;;;;10042601;28;20071;-61
2021/04/15 17:23:43;;;;;;;2.00;1.27;;;17.80;26.10;;;;;;10042950;28;20412;-72
2021/04/15 17:28:35;;;;;;;3.05;1.60;;;15.00;28.90;;;;;;10044063;28;20037;-63
2021/04/15 17:33:26;;;;;;;3.35;1.83;;;14.10;29.30;;;;;;10042696;28;20056;-61
2021/04/15 17:38:18;;;;;;;2.75;1.55;;;13.50;30.00;;;;;;10042628;28;20570;-61
2021/04/15 17:43:10;;;;;;;1.63;1.35;;;13.00;30.30;;;;;;10041642;28;20518;-61
2021/04/15 17:48:01;;;;;;;2.25;1.48;;;12.80;30.60;;;;;;10044299;28;20036;-63
2021/04/15 17:52:52;;;;;;;1.70;1.25;;;12.70;31.10;;;;;;10040815;28;20029;-62
2021/04/15 17:57:43;;;;;;;1.95;1.52;;;12.30;31.30;;;;;;10042589;28;20059;-61
2021/04/15 18:02:34;;;;;;;1.70;1.25;;;12.20;31.60;;;;;;10042709;28;20529;-61
2021/04/15 18:07:25;;;;;;;3.45;1.48;;;12.00;31.70;;;;;;10039768;28;20324;-61
2021/04/15 18:12:16;;;;;;;2.58;2.00;;;11.70;32.10;;;;;;10040178;28;20033;-61
2021/04/15 18:17:06;;;;;;;2.55;1.40;;;11.50;32.60;;;;;;10037733;28;20079;-69
2021/04/15 18:21:57;;;;;;;2.83;1.58;;;11.10;33.80;;;;;;10040570;28;21357;-65
2021/04/15 18:26:48;;;;;;;4.63;1.90;;;10.90;34.60;;;;;;10039032;28;20124;-66
2021/04/15 18:31:43;;;;;;;2.08;1.58;;;10.60;35.90;;;;;;10039864;28;20103;-61
2021/04/15 18:36:33;;;;;;;3.08;1.80;;;10.50;35.90;;;;;;10040888;28;20072;-62
2021/04/15 18:41:28;;;;;;;2.88;1.77;;;10.50;36.00;;;;;;10039109;28;20106;-61
2021/04/15 18:46:22;;;;;;;2.80;1.92;;;10.40;36.70;;;;;;10041381;28;20057;-64
2021/04/15 18:51:13;;;;;;;3.90;2.45;;;10.30;36.60;;;;;;10039713;28;20064;-62
2021/04/15 18:56:04;;;;;;;2.40;1.67;;;10.30;37.00;;;;;;10040687;28;20506;-66
2021/04/15 19:00:58;;;;;;;3.08;2.00;;;10.20;36.80;;;;;;10039263;28;20440;-62
2021/04/15 19:05:53;;;;;;;4.30;1.80;;;10.10;37.40;;;;;;10038907;28;20120;-60
2021/04/15 19:10:46;;;;;;;2.77;1.60;;;10.10;37.50;;;;;;10038994;28;21205;-61
2021/04/15 19:15:37;;;;;;;5.95;2.15;;;10.10;38.10;;;;;;10038718;28;20119;-62
2021/04/15 19:20:29;;;;;;;2.53;1.80;;;10.20;37.60;;;;;;10038522;28;20584;-62
2021/04/15 19:25:26;;;;;;;3.42;2.33;;;10.20;37.60;;;;;;10040426;28;20041;-64
2021/04/15 19:30:23;;;;;;;4.72;2.50;;;10.00;38.60;;;;;;10039077;28;20094;-61
2021/04/15 19:35:15;;;;;;;2.17;1.70;;;9.90;37.80;;;;;;10043175;28;21031;-68
2021/04/15 19:40:08;;;;;;;3.70;2.25;;;9.90;38.40;;;;;;10046369;28;20044;-67
2021/04/15 19:45:03;;;;;;;2.72;1.63;;;9.80;38.40;;;;;;10044264;28;20056;-63
2021/04/15 19:49:54;;;;;;;2.58;1.67;;;9.70;38.40;;;;;;10044394;28;20036;-66
2021/04/15 19:54:45;;;;;;;4.78;2.20;;;9.70;39.10;;;;;;10044135;28;20033;-64
2021/04/15 19:59:35;;;;;;;3.28;1.33;;;9.60;39.00;;;;;;10043373;28;20052;-66
2021/04/15 20:04:26;;;;;;;4.32;2.00;;;9.60;39.20;;;;;;10045912;28;20687;-64
2021/04/15 20:09:17;;;;;;;2.58;1.58;;;9.60;39.50;;;;;;10044317;28;20431;-68
2021/04/15 20:14:10;;;;;;;3.45;1.95;;;9.50;39.90;;;;;;10043135;28;20064;-63
2021/04/15 20:19:02;;;;;;;2.08;1.48;;;9.50;40.50;;;;;;10042517;28;20511;-60
2021/04/15 20:23:54;;;;;;;2.88;2.47;;;9.40;40.30;;;;;;10042805;28;20504;-64
2021/04/15 20:28:44;;;;;;;2.63;1.98;;;9.30;40.30;;;;;;10042822;28;20880;-63
2021/04/15 20:33:36;;;;;;;4.45;1.63;;;9.30;40.60;;;;;;10044914;28;20138;-66
2021/04/15 20:38:31;;;;;;;3.50;2.17;;;9.20;41.10;;;;;;10043863;28;20159;-64
2021/04/15 20:43:23;;;;;;;3.13;1.90;;;9.10;42.20;;;;;;10044857;28;20305;-61
2021/04/15 20:48:14;;;;;;;3.00;2.00;;;8.90;42.80;;;;;;10043605;28;20024;-62
2021/04/15 20:53:12;;;;;;;5.65;2.00;;;8.80;43.40;;;;;;10043522;28;20041;-62
2021/04/15 20:58:04;;;;;;;11.65;2.05;;;8.80;43.30;;;;;;10029836;28;20093;-65
2021/04/15 21:02:55;;;;;;;5.50;2.63;;;8.60;43.50;;;;;;10044734;28;20045;-62
2021/04/15 21:07:48;;;;;;;2.92;2.03;;;8.50;43.90;;;;;;10042037;28;20040;-62
2021/04/15 21:12:39;;;;;;;5.00;2.28;;;8.50;44.70;;;;;;10044456;28;20041;-65
2021/04/15 21:17:29;;;;;;;4.20;2.55;;;8.50;44.40;;;;;;10042115;28;20063;-61
2021/04/15 21:22:20;;;;;;;2.60;1.73;;;8.50;44.70;;;;;;10041935;28;20522;-62
2021/04/15 21:27:11;;;;;;;3.20;2.22;;;8.60;44.40;;;;;;10043831;28;20825;-61
2021/04/15 21:32:02;;;;;;;3.28;2.17;;;8.50;44.80;;;;;;10041963;28;20052;-60
2021/04/15 21:36:53;;;;;;;3.78;2.08;;;8.40;45.40;;;;;;10025695;28;20148;-67
2021/04/15 21:41:44;;;;;;;5.50;3.05;;;8.30;46.40;;;;;;10041894;28;20139;-64
2021/04/15 21:46:36;;;;;;;4.63;2.92;;;8.20;46.60;;;;;;10043236;28;20044;-62
2021/04/15 21:51:27;;;;;;;5.13;2.55;;;8.10;47.20;;;;;;10042105;28;20060;-61
2021/04/15 21:56:18;;;;;;;4.20;2.47;;;8.00;47.70;;;;;;10040848;28;20048;-62
2021/04/15 22:01:12;;;;;;;3.75;2.30;;;7.90;48.30;;;;;;10042169;28;20091;-61
2021/04/15 22:06:09;;;;;;;5.60;2.47;;;7.80;48.60;;;;;;10041884;28;20670;-62
2021/04/15 22:11:11;;;;;;;;;;;7.90;48.40;;;;;;10042968;28;20104;-62
2021/04/15 22:16:04;;;;;;;3.08;2.20;;;7.80;50.20;;;;;;10040981;28;19952;-65
2021/04/15 22:20:55;;;;;;;3.50;2.10;;;7.90;48.20;;;;;;10041729;28;20029;-64
2021/04/15 22:25:46;;;;;;;4.80;2.90;;;7.90;47.50;;;;;;10040521;28;20512;-61
2021/04/15 22:30:38;;;;;;;3.45;1.88;;;7.80;47.70;;;;;;10042074;28;20362;-61
2021/04/15 22:35:31;;;;;;;3.13;1.98;;;7.80;48.30;;;;;;10040478;28;20052;-63
2021/04/15 22:40:25;;;;;;;2.40;2.20;;;7.70;49.20;;;;;;10041303;28;20037;-65
2021/04/15 22:45:17;;;;;;;3.75;2.25;;;7.70;48.60;;;;;;10039489;28;20507;-64
2021/04/15 22:50:15;;;;;;;3.80;2.33;;;7.50;49.90;;;;;;10040622;28;20518;-61
2021/04/15 22:55:09;;;;;;;4.70;2.45;;;7.40;49.80;;;;;;10040751;28;20036;-64
2021/04/15 23:00:01;;;;;;;3.75;2.08;;;7.20;50.40;;;;;;10040284;28;20680;-70
2021/04/15 23:04:52;;;;;;;5.13;2.13;;;7.10;50.40;;;;;;10041074;28;20033;-61
2021/04/15 23:09:43;;;;;;;3.38;2.15;;;7.10;50.70;;;;;;10047391;28;20526;-63
2021/04/15 23:14:34;;;;;;;3.60;2.08;;;7.10;50.00;;;;;;10049587;28;20041;-61
2021/04/15 23:19:25;;;;;;;3.60;1.85;;;7.00;50.40;;;;;;10047126;28;20296;-60
2021/04/15 23:24:16;;;;;;;3.58;2.00;;;7.00;50.10;;;;;;10049267;28;20045;-61
2021/04/15 23:29:07;;;;;;;2.30;1.63;;;6.90;50.00;;;;;;10047681;28;20461;-61
2021/04/15 23:33:58;;;;;;;4.05;2.08;;;6.80;50.70;;;;;;10048114;28;20084;-60
2021/04/15 23:38:48;;;;;;;3.75;1.70;;;6.70;50.30;;;;;;10047338;28;20060;-63
2021/04/15 23:43:39;;;;;;;3.50;1.60;;;6.60;51.10;;;;;;10048123;28;20025;-61
2021/04/15 23:48:32;;;;;;;4.53;1.80;;;6.60;51.30;;;;;;10048286;28;20184;-61
2021/04/15 23:53:23;;;;;;;6.70;1.75;;;6.60;51.20;;;;;;10046812;28;20862;-66
2021/04/15 23:58:14;;;;;;;2.88;1.85;;;6.50;51.90;;;;;;10047630;28;20029;-62
